KLAR

Laramie Regional Airport

Laramie, Wyoming, USA
KLAR 181120Z 1812/1912 21008KT P6SM VCSH SCT040 BKN100 FM181500 23012KT P6SM SCT100 BKN250 FM190300 21007KT P6SM FEW250
Issued Valid From Valid To
Sep-18 @ 11:20 UTC
(4 hours ago)
Sep-18 @ 12:00 UTC
(4 hours ago)
Sep-19 @ 12:00 UTC
(in 20 hours)
Expired Click to View Sep-18 @ 12:00 to Sep-18 @ 15:00
KLAR 181120Z 1812/1912 21008KT P6SM VCSH SCT040 BKN100
Wind Visibility Clouds
210° at 8 knots Greater than 6 miles
  • Scattered at 4,000' AGL
  • Broken at 10,000' AGL
From Sep-18 @ 15:00 to Sep-19 @ 03:00
FM181500 23012KT P6SM SCT100 BKN250
Wind Visibility Clouds
230° at 12 knots Greater than 6 miles
  • Scattered at 10,000' AGL
  • Broken at 25,000' AGL
From Sep-19 @ 03:00 to Sep-19 @ 12:00
FM190300 21007KT P6SM FEW250
Wind Visibility Clouds
210° at 7 knots Greater than 6 miles
  • Few at 25,000' AGL
KLAR 181120Z 1812/1912 21008KT P6SM VCSH SCT040 BKN100 FM181500 23012KT P6SM SCT100 BKN250 FM190300 21007KT P6SM FEW250
Issued Sep-18 @ 11:20 UTC
(4 hours ago)
Valid From Sep-18 @ 12:00 UTC
(4 hours ago)
Valid To Sep-19 @ 12:00 UTC
(in 20 hours)
Sep-18 @ 12:00 - Sep-18 @ 15:00
Wind Visibility
210° at 8 knots Greater than 6 miles
Clouds
  • Scattered at 4,000' AGL
  • Broken at 10,000' AGL
From Sep-18 @ 15:00 - Sep-19 @ 03:00
Wind Visibility
230° at 12 knots Greater than 6 miles
Clouds
  • Scattered at 10,000' AGL
  • Broken at 25,000' AGL
From Sep-19 @ 03:00 - Sep-19 @ 12:00
Wind Visibility
210° at 7 knots Greater than 6 miles
Clouds
  • Few at 25,000' AGL